createdAt,value
2023-07-25T00:05:17.236Z,74.74
2023-07-25T00:35:20.173Z,76.59
2023-07-25T01:05:23.791Z,77.71
2023-07-25T01:35:26.759Z,78.55
2023-07-25T02:05:30.583Z,79.12
2023-07-25T02:35:33.621Z,80.23
2023-07-25T03:05:37.747Z,82.34
2023-07-25T03:35:40.732Z,82.24
2023-07-25T04:05:44.572Z,82.83
2023-07-25T04:35:48.488Z,82.92
2023-07-25T05:05:51.745Z,82.89
2023-07-25T05:35:54.744Z,82.29
2023-07-25T06:05:58.132Z,81.14
2023-07-25T06:36:01.088Z,80.18
2023-07-25T07:06:04.551Z,79.16
2023-07-25T07:36:07.514Z,78.27
2023-07-25T08:06:13.283Z,76.69
2023-07-25T08:36:16.386Z,75.00
2023-07-25T09:06:19.906Z,72.77
2023-07-25T09:36:22.878Z,69.71
2023-07-25T10:06:26.391Z,67.92
2023-07-25T10:36:29.384Z,63.76
2023-07-25T11:06:33.411Z,61.64
2023-07-25T11:36:36.381Z,59.65
2023-07-25T12:06:41.045Z,60.74
2023-07-25T12:36:44.133Z,57.83
2023-07-25T13:06:47.604Z,57.17
2023-07-25T13:36:50.581Z,53.78
2023-07-25T14:06:54.494Z,53.31
2023-07-25T14:36:57.467Z,51.99
2023-07-25T15:07:01.143Z,51.79
2023-07-25T15:37:04.410Z,52.88
2023-07-25T16:07:08.096Z,53.86
2023-07-25T16:37:11.074Z,53.27
2023-07-25T17:07:14.198Z,53.65
2023-07-25T17:37:17.854Z,53.51
2023-07-25T18:07:21.098Z,55.89
2023-07-25T18:37:24.568Z,56.99
2023-07-25T19:07:27.613Z,58.76
2023-07-25T19:37:31.112Z,60.45
2023-07-25T20:07:34.521Z,62.58
2023-07-25T20:37:37.439Z,63.15
2023-07-25T21:07:40.954Z,64.96
2023-07-25T21:37:43.965Z,66.21
2023-07-25T22:07:47.652Z,69.62
2023-07-25T22:37:51.163Z,71.75
2023-07-25T23:07:54.183Z,74.21
2023-07-25T23:37:57.868Z,75.13
